createdAt,value
2019-01-25T00:02:21.559Z,76.24
2019-01-25T00:04:49.998Z,76.30
2019-01-25T00:07:18.481Z,76.53
2019-01-25T00:09:46.918Z,76.12
2019-01-25T00:12:15.465Z,75.99
2019-01-25T00:14:43.898Z,76.06
2019-01-25T00:20:20.438Z,76.45
2019-01-25T00:22:48.874Z,76.18
2019-01-25T00:25:36.657Z,75.98
2019-01-25T00:28:05.163Z,76.09
2019-01-25T00:30:53.066Z,76.48
2019-01-25T00:33:21.503Z,76.24
2019-01-25T00:36:09.307Z,75.89
2019-01-25T00:38:37.725Z,76.27
2019-01-25T00:41:25.431Z,76.32
2019-01-25T00:43:53.866Z,75.54
2019-01-25T00:46:22.310Z,75.62
2019-01-25T00:48:50.774Z,75.01
2019-01-25T00:51:19.260Z,74.74
2019-01-25T00:54:06.995Z,74.45
2019-01-25T00:59:43.524Z,73.82
2019-01-25T01:02:31.275Z,73.41
2019-01-25T01:04:59.769Z,73.39
2019-01-25T01:07:47.522Z,73.23
2019-01-25T01:10:55.994Z,73.15
2019-01-25T01:13:43.620Z,73.01
2019-01-25T01:16:12.085Z,73.47
2019-01-25T01:18:40.523Z,73.40
2019-01-25T01:26:30.660Z,73.64
2019-01-25T01:28:59.143Z,73.92
2019-01-25T01:31:27.582Z,73.79
2019-01-25T01:33:56.018Z,73.56
2019-01-25T01:38:58.450Z,74.00
2019-01-25T01:41:26.922Z,74.18
2019-01-25T01:43:55.359Z,74.70
2019-01-25T01:46:43.142Z,74.71
2019-01-25T01:49:11.650Z,75.55
2019-01-25T01:51:59.298Z,75.42
2019-01-25T01:54:27.733Z,75.50
2019-01-25T01:57:15.403Z,76.22
2019-01-25T02:00:03.159Z,76.63
2019-01-25T02:02:51.074Z,77.40
2019-01-25T02:05:59.422Z,77.63
2019-01-25T02:11:01.940Z,79.86
2019-01-25T02:13:49.671Z,80.19
2019-01-25T02:16:18.138Z,80.34
2019-01-25T02:19:05.891Z,79.84
2019-01-25T02:21:34.329Z,80.78
2019-01-25T02:24:02.838Z,81.36
2019-01-25T02:26:50.546Z,81.33
2019-01-25T02:29:18.982Z,81.16
2019-01-25T02:32:06.659Z,81.22
2019-01-25T02:34:35.110Z,80.79
2019-01-25T02:37:03.546Z,81.07
2019-01-25T02:42:25.294Z,81.37
2019-01-25T02:45:12.948Z,81.36
2019-01-25T02:50:49.518Z,82.18
2019-01-25T02:53:17.953Z,81.64
2019-01-25T02:55:46.394Z,81.41
2019-01-25T02:58:14.874Z,81.55
2019-01-25T03:00:43.306Z,81.80
2019-01-25T03:03:11.745Z,81.55
2019-01-25T03:05:40.215Z,82.28
2019-01-25T03:08:08.719Z,82.10
2019-01-25T03:13:50.551Z,81.99
2019-01-25T03:16:38.180Z,82.10
2019-01-25T03:22:00.347Z,82.05
2019-01-25T03:27:22.019Z,82.47
2019-01-25T03:29:50.522Z,82.54
2019-01-25T03:32:18.957Z,82.18
2019-01-25T03:34:47.394Z,82.19
2019-01-25T03:40:09.533Z,82.26
2019-01-25T03:42:57.385Z,82.65
2019-01-25T03:46:05.734Z,82.55
2019-01-25T03:56:36.145Z,82.46
2019-01-25T03:59:44.540Z,82.49
2019-01-25T04:02:32.166Z,82.79
2019-01-25T04:07:35.078Z,83.17
2019-01-25T04:10:43.454Z,82.77
2019-01-25T04:13:11.891Z,82.97
2019-01-25T04:21:01.863Z,83.46
2019-01-25T04:23:30.406Z,83.58
2019-01-25T04:25:58.846Z,83.59
2019-01-25T04:28:27.284Z,83.78
2019-01-25T04:31:15.027Z,83.77
2019-01-25T04:33:43.493Z,83.72
2019-01-25T04:36:31.323Z,83.98
2019-01-25T04:38:59.738Z,83.94
2019-01-25T04:41:28.173Z,83.70
2019-01-25T04:43:56.641Z,83.70
2019-01-25T04:46:25.071Z,83.56
2019-01-25T04:48:53.506Z,84.45
2019-01-25T04:51:22.001Z,84.07
2019-01-25T04:54:09.740Z,84.16
2019-01-25T04:56:38.358Z,83.99
2019-01-25T05:02:15.218Z,84.00
2019-01-25T05:04:43.650Z,84.34
2019-01-25T05:07:12.082Z,84.18
2019-01-25T05:10:00.466Z,85.10
2019-01-25T05:12:28.866Z,85.12
2019-01-25T05:14:57.306Z,84.60
2019-01-25T05:17:25.776Z,84.85
2019-01-25T05:19:54.281Z,84.13
2019-01-25T05:22:22.728Z,84.57
2019-01-25T05:24:51.496Z,84.63
2019-01-25T05:27:19.934Z,84.68
2019-01-25T05:29:53.289Z,84.93
2019-01-25T05:32:22.009Z,85.40
2019-01-25T05:34:50.445Z,85.24
2019-01-25T05:37:19.047Z,85.32
2019-01-25T05:39:47.656Z,85.91
2019-01-25T05:42:16.159Z,86.21
2019-01-25T05:44:44.595Z,85.98
2019-01-25T05:47:13.814Z,86.29
2019-01-25T05:49:42.254Z,86.32
2019-01-25T05:52:15.931Z,86.25
2019-01-25T05:54:44.570Z,87.01
2019-01-25T05:57:13.004Z,87.02
2019-01-25T05:59:41.444Z,87.18
2019-01-25T06:02:10.055Z,87.20
2019-01-25T06:04:39.836Z,86.85
2019-01-25T06:07:08.336Z,86.69
2019-01-25T06:09:36.907Z,87.01
2019-01-25T06:12:05.522Z,87.04
2019-01-25T06:14:33.980Z,87.25
2019-01-25T06:17:02.426Z,87.37
2019-01-25T06:19:34.183Z,87.68
2019-01-25T06:22:02.618Z,88.33
2019-01-25T06:24:31.135Z,88.22
2019-01-25T06:26:59.642Z,88.22
2019-01-25T06:29:30.889Z,88.50
2019-01-25T06:31:59.367Z,88.43
2019-01-25T06:34:27.885Z,88.76
2019-01-25T06:36:56.324Z,89.01
2019-01-25T06:39:24.924Z,88.92
2019-01-25T06:41:53.358Z,88.58
2019-01-25T06:44:21.798Z,88.84
2019-01-25T06:46:50.298Z,88.43
2019-01-25T06:49:18.743Z,88.58
2019-01-25T06:51:47.202Z,88.13
2019-01-25T06:54:15.675Z,88.32
2019-01-25T06:56:44.108Z,88.46
2019-01-25T06:59:14.178Z,88.73
2019-01-25T07:01:44.286Z,87.91
2019-01-25T07:04:12.792Z,88.10
2019-01-25T07:06:41.300Z,89.25
2019-01-25T07:09:11.063Z,89.45
2019-01-25T07:11:42.271Z,89.87
2019-01-25T07:14:09.803Z,90.07
2019-01-25T07:16:38.259Z,89.85
2019-01-25T07:19:06.766Z,89.74
2019-01-25T07:21:35.211Z,89.83
2019-01-25T07:24:04.969Z,89.84
2019-01-25T07:26:33.419Z,90.41
2019-01-25T07:29:01.885Z,91.05
2019-01-25T07:31:30.536Z,90.37
2019-01-25T07:33:59.003Z,90.01
2019-01-25T07:36:27.451Z,90.59
2019-01-25T07:38:55.908Z,90.93
2019-01-25T07:41:24.351Z,90.75
2019-01-25T07:43:52.832Z,90.86
2019-01-25T07:46:21.303Z,90.56
2019-01-25T07:48:49.773Z,91.01
2019-01-25T07:51:18.239Z,91.28
2019-01-25T07:53:46.889Z,91.26
2019-01-25T07:56:15.421Z,90.95
2019-01-25T07:58:43.861Z,90.04
2019-01-25T08:01:12.406Z,91.19
2019-01-25T08:03:40.878Z,91.76
2019-01-25T08:06:09.380Z,91.65
2019-01-25T08:08:37.851Z,91.59
2019-01-25T08:11:06.409Z,91.64
2019-01-25T08:13:34.826Z,91.76
2019-01-25T08:16:03.425Z,91.63
2019-01-25T08:18:32.021Z,91.89
2019-01-25T08:21:00.499Z,91.62
2019-01-25T08:23:28.995Z,91.43
2019-01-25T08:25:57.503Z,91.13
2019-01-25T08:28:26.080Z,91.53
2019-01-25T08:30:54.798Z,90.79
2019-01-25T08:33:23.246Z,90.73
2019-01-25T08:35:51.673Z,90.45
2019-01-25T08:38:20.600Z,90.76
2019-01-25T08:40:49.050Z,91.54
2019-01-25T08:43:17.531Z,91.48
2019-01-25T08:45:46.213Z,91.87
2019-01-25T08:48:14.709Z,92.11
2019-01-25T08:50:43.147Z,92.04
2019-01-25T08:53:11.723Z,92.30
2019-01-25T08:55:40.169Z,93.05
2019-01-25T08:58:08.620Z,92.77
2019-01-25T09:00:37.147Z,92.98
2019-01-25T09:03:05.820Z,92.88
2019-01-25T09:05:34.757Z,92.27
2019-01-25T09:08:03.730Z,92.09
2019-01-25T09:10:32.206Z,92.84
2019-01-25T09:13:00.717Z,92.75
2019-01-25T09:15:33.991Z,92.26
2019-01-25T09:18:02.503Z,91.91
2019-01-25T09:20:31.007Z,91.72
2019-01-25T09:22:59.551Z,91.86
2019-01-25T09:25:28.012Z,91.88
2019-01-25T09:27:56.467Z,92.56
2019-01-25T09:30:28.571Z,92.56
2019-01-25T09:32:57.080Z,93.40
2019-01-25T09:35:25.656Z,94.03
2019-01-25T09:37:54.549Z,93.52
2019-01-25T09:40:25.007Z,93.75
2019-01-25T09:42:53.618Z,93.63
2019-01-25T09:45:22.610Z,92.76
2019-01-25T09:47:52.103Z,93.19
2019-01-25T09:50:22.477Z,93.40
2019-01-25T09:52:51.352Z,94.24
2019-01-25T09:55:24.443Z,93.50
2019-01-25T09:57:54.226Z,93.55
2019-01-25T10:00:25.917Z,93.09
2019-01-25T10:02:54.376Z,92.39
2019-01-25T10:05:22.930Z,92.92
2019-01-25T10:07:51.857Z,92.28
2019-01-25T10:10:21.301Z,93.08
2019-01-25T10:12:49.846Z,93.21
2019-01-25T10:15:21.451Z,92.25
2019-01-25T10:17:49.885Z,92.15
2019-01-25T10:20:19.049Z,91.98
2019-01-25T10:22:47.765Z,92.64
2019-01-25T10:25:16.366Z,92.59
2019-01-25T10:27:44.868Z,91.79
2019-01-25T10:30:22.305Z,90.61
2019-01-25T10:32:50.810Z,90.84
2019-01-25T10:35:19.977Z,90.29
2019-01-25T10:37:48.883Z,90.17
2019-01-25T10:40:19.743Z,90.29
2019-01-25T10:42:53.426Z,89.18
2019-01-25T10:45:21.501Z,89.49
2019-01-25T10:47:50.009Z,89.14
2019-01-25T10:50:18.518Z,89.19
2019-01-25T10:52:47.142Z,88.89
2019-01-25T10:55:15.713Z,87.55
2019-01-25T10:57:44.485Z,87.27
2019-01-25T11:00:18.451Z,85.79
2019-01-25T11:02:46.950Z,85.40
2019-01-25T11:05:29.051Z,86.04
2019-01-25T11:07:57.616Z,85.51
2019-01-25T11:10:26.116Z,85.81
2019-01-25T11:15:28.553Z,84.96
2019-01-25T11:18:16.362Z,84.78
2019-01-25T11:20:44.805Z,84.43
2019-01-25T11:23:13.244Z,83.07
2019-01-25T11:26:21.612Z,83.86
2019-01-25T11:28:50.044Z,83.00
2019-01-25T11:31:18.477Z,82.30
2019-01-25T11:33:46.954Z,82.87
2019-01-25T11:36:15.387Z,81.79
2019-01-25T11:38:43.821Z,82.19
2019-01-25T11:41:12.346Z,81.77
2019-01-25T11:43:40.781Z,80.80
2019-01-25T11:46:09.214Z,80.26
2019-01-25T11:48:37.669Z,78.54
2019-01-25T11:51:06.102Z,77.95
2019-01-25T11:53:34.569Z,77.65
2019-01-25T11:58:36.605Z,77.13
2019-01-25T12:01:44.976Z,77.16
2019-01-25T12:09:36.946Z,75.41
2019-01-25T12:12:45.320Z,75.60
2019-01-25T12:15:53.662Z,76.07
2019-01-25T12:18:22.240Z,75.84
2019-01-25T12:20:50.667Z,75.47
2019-01-25T12:23:19.099Z,75.50
2019-01-25T12:28:21.467Z,74.81
2019-01-25T12:30:50.033Z,74.59
2019-01-25T12:33:18.465Z,74.44
2019-01-25T12:35:46.918Z,73.98
2019-01-25T12:38:15.376Z,73.90
2019-01-25T12:41:03.122Z,74.14
2019-01-25T12:46:25.022Z,73.57
2019-01-25T12:48:53.476Z,73.08
2019-01-25T12:51:21.989Z,73.02
2019-01-25T12:54:09.778Z,73.19
2019-01-25T12:56:57.552Z,73.02
2019-01-25T12:59:45.239Z,72.36
2019-01-25T13:02:13.735Z,71.76
2019-01-25T13:04:42.159Z,72.05
2019-01-25T13:07:10.635Z,72.42
2019-01-25T13:09:39.064Z,71.64
2019-01-25T13:12:26.760Z,71.56
2019-01-25T13:14:55.183Z,71.32
2019-01-25T13:17:23.610Z,71.34
2019-01-25T13:19:52.062Z,71.38
2019-01-25T13:22:20.483Z,71.67
2019-01-25T13:24:48.913Z,71.00
2019-01-25T13:29:59.460Z,71.16
2019-01-25T13:32:28.003Z,71.04
2019-01-25T13:34:56.438Z,70.76
2019-01-25T13:37:24.944Z,71.44
2019-01-25T13:42:27.775Z,71.60
2019-01-25T13:44:56.216Z,71.39
2019-01-25T13:49:58.880Z,72.23
2019-01-25T13:55:00.911Z,72.31
2019-01-25T13:57:29.337Z,72.43
2019-01-25T14:02:31.574Z,74.20
2019-01-25T14:05:00.034Z,74.75
2019-01-25T14:07:28.464Z,75.48
2019-01-25T14:09:56.897Z,76.28
2019-01-25T14:14:58.933Z,76.45
2019-01-25T14:17:27.372Z,75.48
2019-01-25T14:19:55.830Z,75.89
2019-01-25T14:22:24.277Z,75.93
2019-01-25T14:24:52.716Z,76.29
2019-01-25T14:27:21.252Z,76.30
2019-01-25T14:29:49.739Z,76.34
2019-01-25T14:32:18.113Z,75.69
2019-01-25T14:34:46.569Z,75.71
2019-01-25T14:43:16.809Z,75.83
2019-01-25T14:45:45.242Z,76.17
2019-01-25T14:50:47.595Z,76.01
2019-01-25T14:53:35.365Z,76.22
2019-01-25T14:56:03.869Z,75.96
2019-01-25T14:58:32.298Z,75.56
2019-01-25T15:01:00.761Z,75.75
2019-01-25T15:03:29.185Z,75.54
2019-01-25T15:06:17.057Z,75.72
2019-01-25T15:08:45.479Z,75.65
2019-01-25T15:11:13.929Z,75.64
2019-01-25T15:13:42.408Z,75.20
2019-01-25T15:16:10.827Z,75.43
2019-01-25T15:21:51.668Z,74.78
2019-01-25T15:24:20.124Z,75.85
2019-01-25T15:26:48.552Z,76.40
2019-01-25T15:29:36.211Z,76.79
2019-01-25T15:32:44.559Z,77.38
2019-01-25T15:35:53.066Z,77.87
2019-01-25T15:38:21.549Z,78.44
2019-01-25T15:40:50.053Z,78.53
2019-01-25T15:49:05.181Z,79.42
2019-01-25T15:51:33.617Z,79.85
2019-01-25T15:54:02.053Z,79.90
2019-01-25T15:59:05.168Z,80.18
2019-01-25T16:04:07.285Z,80.84
2019-01-25T16:06:35.712Z,81.02
2019-01-25T16:09:23.868Z,81.51
2019-01-25T16:11:53.778Z,81.18
2019-01-25T16:14:22.974Z,81.17
2019-01-25T16:16:52.461Z,81.64
2019-01-25T16:19:20.892Z,82.20
2019-01-25T16:21:49.326Z,82.27
2019-01-25T16:24:17.793Z,82.43
2019-01-25T16:26:46.247Z,82.58
2019-01-25T16:29:33.989Z,82.51
2019-01-25T16:32:02.421Z,83.12
2019-01-25T16:34:30.853Z,83.22
2019-01-25T16:36:59.321Z,83.23
2019-01-25T16:39:27.752Z,83.57
2019-01-25T16:41:56.182Z,82.99
2019-01-25T16:44:43.978Z,83.36
2019-01-25T16:49:59.909Z,83.16
2019-01-25T16:52:28.348Z,83.47
2019-01-25T16:54:56.778Z,83.46
2019-01-25T16:59:59.535Z,83.45
2019-01-25T17:02:47.261Z,83.51
2019-01-25T17:08:23.860Z,83.62
2019-01-25T17:10:52.289Z,83.41
2019-01-25T17:13:20.721Z,83.60
2019-01-25T17:18:42.763Z,83.34
2019-01-25T17:21:11.214Z,83.52
2019-01-25T17:23:39.645Z,83.74
2019-01-25T17:26:08.076Z,83.80
2019-01-25T17:31:10.830Z,83.72
2019-01-25T17:36:13.758Z,83.16
2019-01-25T17:38:42.215Z,83.13
2019-01-25T17:41:50.567Z,82.99
2019-01-25T17:46:52.713Z,83.20
2019-01-25T17:52:14.958Z,83.22
2019-01-25T17:54:43.424Z,83.57
2019-01-25T17:57:31.047Z,83.98
2019-01-25T17:59:59.505Z,84.10
2019-01-25T18:02:47.060Z,84.42
2019-01-25T18:05:34.957Z,84.31
2019-01-25T18:08:03.460Z,84.09
2019-01-25T18:10:31.972Z,84.00
2019-01-25T18:13:00.425Z,84.09
2019-01-25T18:15:28.857Z,83.96
2019-01-25T18:17:57.292Z,84.30
2019-01-25T18:20:45.082Z,83.95
2019-01-25T18:23:13.515Z,83.98
2019-01-25T18:26:21.888Z,84.07
2019-01-25T18:29:30.242Z,84.34
2019-01-25T18:34:32.177Z,84.42
2019-01-25T18:37:00.613Z,84.27
2019-01-25T18:39:29.082Z,83.99
2019-01-25T18:41:57.519Z,83.77
2019-01-25T18:44:25.952Z,83.49
2019-01-25T18:46:54.407Z,83.43
2019-01-25T18:49:22.840Z,83.45
2019-01-25T18:51:51.270Z,83.21
2019-01-25T18:54:19.804Z,83.30
2019-01-25T18:56:48.237Z,83.53
2019-01-25T18:59:16.669Z,83.37
2019-01-25T19:02:04.541Z,83.68
2019-01-25T19:04:32.982Z,83.85
2019-01-25T19:07:20.562Z,84.21
2019-01-25T19:10:08.200Z,84.12
2019-01-25T19:12:55.969Z,84.26
2019-01-25T19:16:04.344Z,85.17
2019-01-25T19:21:26.567Z,85.57
2019-01-25T19:24:14.366Z,85.65
2019-01-25T19:27:02.046Z,85.79
2019-01-25T19:44:08.119Z,89.03
2019-01-25T19:46:55.754Z,89.35
2019-01-25T19:51:58.292Z,89.14
2019-01-25T19:54:26.753Z,89.50
2019-01-25T19:56:55.387Z,89.58
2019-01-25T19:59:43.159Z,89.19
2019-01-25T20:05:46.261Z,88.72
2019-01-25T20:11:22.972Z,89.34
2019-01-25T20:14:10.747Z,89.08
2019-01-25T20:16:39.427Z,89.26
2019-01-25T20:25:07.789Z,90.53
2019-01-25T20:27:55.790Z,91.12
2019-01-25T20:30:49.563Z,91.50
2019-01-25T20:33:33.241Z,92.93
2019-01-25T20:36:20.903Z,94.04
2019-01-25T20:39:08.732Z,94.30
2019-01-25T20:41:56.498Z,93.93
2019-01-25T20:44:25.067Z,93.84
2019-01-25T20:47:12.859Z,93.93
2019-01-25T20:50:00.584Z,93.16
2019-01-25T20:52:48.310Z,92.63
2019-01-25T20:55:56.824Z,92.36
2019-01-25T20:58:44.607Z,91.79
2019-01-25T21:01:13.083Z,91.50
2019-01-25T21:04:00.867Z,91.44
2019-01-25T21:06:48.576Z,90.68
2019-01-25T21:09:36.362Z,91.23
2019-01-25T21:12:24.195Z,90.63
2019-01-25T21:15:11.861Z,90.29
2019-01-25T21:17:40.483Z,90.52
2019-01-25T21:20:47.511Z,90.00
2019-01-25T21:23:35.464Z,89.77
2019-01-25T21:29:12.172Z,90.72
2019-01-25T21:31:40.607Z,90.07
2019-01-25T21:34:09.045Z,90.67
2019-01-25T21:36:56.773Z,90.53
2019-01-25T21:39:44.409Z,90.28
2019-01-25T21:42:12.898Z,90.40
2019-01-25T21:44:41.349Z,90.08
2019-01-25T21:47:09.782Z,90.61
2019-01-25T21:49:38.253Z,90.87
2019-01-25T21:52:25.880Z,91.08
2019-01-25T21:54:54.351Z,91.19
2019-01-25T21:57:42.108Z,91.38
2019-01-25T22:00:50.488Z,91.87
2019-01-25T22:03:38.251Z,92.10
2019-01-25T22:06:25.887Z,92.81
2019-01-25T22:09:13.526Z,92.69
2019-01-25T22:14:15.553Z,92.38
2019-01-25T22:19:18.476Z,94.20
2019-01-25T22:24:21.091Z,92.67
2019-01-25T22:26:49.593Z,93.23
2019-01-25T22:29:18.045Z,94.41
2019-01-25T22:31:46.475Z,93.68
2019-01-25T22:36:48.445Z,94.41
2019-01-25T22:39:16.880Z,95.93
2019-01-25T22:44:39.371Z,95.57
2019-01-25T22:47:07.871Z,96.21
2019-01-25T22:49:55.549Z,96.53
2019-01-25T22:52:24.013Z,96.31
2019-01-25T22:54:52.447Z,98.56
2019-01-25T23:00:54.970Z,98.59
2019-01-25T23:04:03.365Z,98.82
2019-01-25T23:06:51.117Z,98.80
2019-01-25T23:09:59.530Z,99.77
2019-01-25T23:12:27.957Z,99.31
2019-01-25T23:15:15.702Z,98.92
2019-01-25T23:18:03.448Z,99.09
2019-01-25T23:20:31.925Z,97.84
2019-01-25T23:23:19.542Z,98.67
2019-01-25T23:25:48.012Z,98.69
2019-01-25T23:28:16.439Z,98.39
2019-01-25T23:30:44.886Z,99.67
2019-01-25T23:33:32.678Z,100.00
2019-01-25T23:36:01.174Z,100.00
2019-01-25T23:38:29.613Z,99.47
2019-01-25T23:41:17.352Z,99.89
2019-01-25T23:43:45.784Z,100.00
2019-01-25T23:46:33.561Z,100.00
2019-01-25T23:49:01.997Z,100.00
2019-01-25T23:51:30.428Z,100.00
2019-01-25T23:53:58.892Z,100.00
2019-01-25T23:56:27.327Z,100.00
2019-01-25T23:58:55.756Z,100.00
